<?xml version="1.0" encoding="UTF-8" standalone="no" ?><gpx xmlns="http://www.topografix.com/GPX/1/1" xmlns:gpxx="http://www.garmin.com/xmlschemas/GpxExtensions/v3" xmlns:wptx1="http://www.garmin.com/xmlschemas/WaypointExtension/v1" xmlns:gpxtpx="http://www.garmin.com/xmlschemas/TrackPointExtension/v1" creator="Dakota 20" version="1.1" xmlns:xsi="http://www.w3.org/2001/XMLSchema-instance" xsi:schemaLocation="http://www.topografix.com/GPX/1/1 http://www.topografix.com/GPX/1/1/gpx.xsd http://www.garmin.com/xmlschemas/GpxExtensions/v3 http://www8.garmin.com/xmlschemas/GpxExtensionsv3.xsd http://www.garmin.com/xmlschemas/WaypointExtension/v1 http://www8.garmin.com/xmlschemas/WaypointExtensionv1.xsd http://www.garmin.com/xmlschemas/TrackPointExtension/v1 http://www.garmin.com/xmlschemas/TrackPointExtensionv1.xsd"><metadata><link href="http://www.garmin.com"><text>Garmin International</text></link><time>2015-01-28T15:53:31Z</time></metadata><trk><name>Current Track: 28 JAN 2015 10:02</name><extensions><gpxx:TrackExtension><gpxx:DisplayColor>Cyan</gpxx:DisplayColor></gpxx:TrackExtension></extensions><trkseg><trkpt lat="51.9520065654" lon="-1.9721870497"><ele>108.29</ele><time>2015-01-28T10:02:27Z</time></trkpt><trkpt lat="51.9520063978" lon="-1.9721875526"><ele>108.29</ele><time>2015-01-28T10:02:28Z</time></trkpt><trkpt lat="51.9520063978" lon="-1.9721878879"><ele>105.40</ele><time>2015-01-28T10:02:29Z</time></trkpt><trkpt lat="51.9520066492" lon="-1.9721883070"><ele>105.88</ele><time>2015-01-28T10:02:30Z</time></trkpt><trkpt lat="51.9520058949" lon="-1.9721851218"><ele>105.40</ele><time>2015-01-28T10:02:47Z</time></trkpt><trkpt lat="51.9520270173" lon="-1.9722092617"><ele>104.92</ele><time>2015-01-28T10:02:55Z</time></trkpt><trkpt lat="51.9520664960" lon="-1.9722660910"><ele>103.96</ele><time>2015-01-28T10:03:00Z</time></trkpt><trkpt lat="51.9520438649" lon="-1.9724099245"><ele>103.48</ele><time>2015-01-28T10:03:13Z</time></trkpt><trkpt lat="51.9520077389" lon="-1.9723952562"><ele>103.00</ele><time>2015-01-28T10:03:21Z</time></trkpt><trkpt lat="51.9518970139" lon="-1.9722434599"><ele>102.52</ele><time>2015-01-28T10:03:38Z</time></trkpt><trkpt lat="51.9517129473" lon="-1.9719853811"><ele>102.52</ele><time>2015-01-28T10:04:00Z</time></trkpt><trkpt lat="51.9516777433" lon="-1.9719170686"><ele>102.52</ele><time>2015-01-28T10:04:14Z</time></trkpt><trkpt lat="51.9516699482" lon="-1.9719119556"><ele>102.04</ele><time>2015-01-28T10:04:29Z</time></trkpt><trkpt lat="51.9515018072" lon="-1.9719515182"><ele>102.04</ele><time>2015-01-28T10:04:46Z</time></trkpt><trkpt lat="51.9514899887" lon="-1.9719292223"><ele>101.56</ele><time>2015-01-28T10:05:06Z</time></trkpt><trkpt lat="51.9513148908" lon="-1.9722261932"><ele>103.00</ele><time>2015-01-28T10:05:24Z</time></trkpt><trkpt lat="51.9511634298" lon="-1.9725752156"><ele>103.48</ele><time>2015-01-28T10:05:42Z</time></trkpt><trkpt lat="51.9510011561" lon="-1.9728006050"><ele>103.00</ele><time>2015-01-28T10:05:55Z</time></trkpt><trkpt lat="51.9509979710" lon="-1.9728255831"><ele>102.52</ele><time>2015-01-28T10:05:57Z</time></trkpt><trkpt lat="51.9507912733" lon="-1.9730221387"><ele>103.48</ele><time>2015-01-28T10:06:14Z</time></trkpt><trkpt lat="51.9507522974" lon="-1.9730777945"><ele>102.04</ele><time>2015-01-28T10:06:18Z</time></trkpt><trkpt lat="51.9507339410" lon="-1.9731030241"><ele>103.00</ele><time>2015-01-28T10:06:22Z</time></trkpt><trkpt lat="51.9507031795" lon="-1.9731413294"><ele>103.48</ele><time>2015-01-28T10:06:26Z</time></trkpt><trkpt lat="51.9506942108" lon="-1.9731455203"><ele>103.48</ele><time>2015-01-28T10:06:27Z</time></trkpt><trkpt lat="51.9505070429" lon="-1.9732780382"><ele>103.48</ele><time>2015-01-28T10:06:41Z</time></trkpt><trkpt lat="51.9504488725" lon="-1.9733425789"><ele>103.96</ele><time>2015-01-28T10:06:48Z</time></trkpt><trkpt lat="51.9503197074" lon="-1.9734956324"><ele>102.04</ele><time>2015-01-28T10:07:03Z</time></trkpt><trkpt lat="51.9501632173" lon="-1.9736645278"><ele>101.56</ele><time>2015-01-28T10:07:18Z</time></trkpt><trkpt lat="51.9500151929" lon="-1.9738164917"><ele>99.63</ele><time>2015-01-28T10:07:35Z</time></trkpt><trkpt lat="51.9499721099" lon="-1.9738708064"><ele>100.11</ele><time>2015-01-28T10:07:40Z</time></trkpt><trkpt lat="51.9498224929" lon="-1.9740239438"><ele>97.71</ele><time>2015-01-28T10:07:54Z</time></trkpt><trkpt lat="51.9496857002" lon="-1.9741396978"><ele>97.71</ele><time>2015-01-28T10:08:10Z</time></trkpt><trkpt lat="51.9496560283" lon="-1.9741168991"><ele>97.23</ele><time>2015-01-28T10:08:23Z</time></trkpt><trkpt lat="51.9496478979" lon="-1.9740773365"><ele>96.27</ele><time>2015-01-28T10:08:25Z</time></trkpt><trkpt lat="51.9495712873" lon="-1.9737905078"><ele>94.35</ele><time>2015-01-28T10:08:41Z</time></trkpt><trkpt lat="51.9494945928" lon="-1.9736822974"><ele>94.35</ele><time>2015-01-28T10:08:57Z</time></trkpt><trkpt lat="51.9494999573" lon="-1.9736353587"><ele>93.87</ele><time>2015-01-28T10:09:15Z</time></trkpt><trkpt lat="51.9494551141" lon="-1.9735504501"><ele>94.35</ele><time>2015-01-28T10:09:34Z</time></trkpt><trkpt lat="51.9494184013" lon="-1.9734577462"><ele>94.35</ele><time>2015-01-28T10:09:40Z</time></trkpt><trkpt lat="51.9492866378" lon="-1.9733426627"><ele>95.31</ele><time>2015-01-28T10:09:55Z</time></trkpt><trkpt lat="51.9491153955" lon="-1.9732559100"><ele>95.79</ele><time>2015-01-28T10:10:12Z</time></trkpt><trkpt lat="51.9490003120" lon="-1.9732239749"><ele>97.71</ele><time>2015-01-28T10:10:25Z</time></trkpt><trkpt lat="51.9490003120" lon="-1.9732125755"><ele>97.23</ele><time>2015-01-28T10:10:26Z</time></trkpt><trkpt lat="51.9489415549" lon="-1.9731561653"><ele>99.63</ele><time>2015-01-28T10:10:33Z</time></trkpt><trkpt lat="51.9489335082" lon="-1.9731516391"><ele>99.15</ele><time>2015-01-28T10:10:34Z</time></trkpt><trkpt lat="51.9488688000" lon="-1.9731497113"><ele>98.67</ele><time>2015-01-28T10:10:41Z</time></trkpt><trkpt lat="51.9488372840" lon="-1.9731512200"><ele>99.63</ele><time>2015-01-28T10:10:44Z</time></trkpt><trkpt lat="51.9487922732" lon="-1.9731467776"><ele>100.60</ele><time>2015-01-28T10:10:48Z</time></trkpt><trkpt lat="51.9486108888" lon="-1.9731068797"><ele>101.56</ele><time>2015-01-28T10:11:06Z</time></trkpt><trkpt lat="51.9485912751" lon="-1.9730993360"><ele>102.52</ele><time>2015-01-28T10:11:08Z</time></trkpt><trkpt lat="51.9484212901" lon="-1.9731011800"><ele>102.52</ele><time>2015-01-28T10:11:24Z</time></trkpt><trkpt lat="51.9483893551" lon="-1.9730956480"><ele>103.96</ele><time>2015-01-28T10:11:27Z</time></trkpt><trkpt lat="51.9483686518" lon="-1.9730939716"><ele>102.52</ele><time>2015-01-28T10:11:29Z</time></trkpt><trkpt lat="51.9482097309" lon="-1.9730929658"><ele>103.00</ele><time>2015-01-28T10:11:45Z</time></trkpt><trkpt lat="51.9481177814" lon="-1.9730726816"><ele>103.48</ele><time>2015-01-28T10:11:54Z</time></trkpt><trkpt lat="51.9479571003" lon="-1.9730732683"><ele>103.48</ele><time>2015-01-28T10:12:11Z</time></trkpt><trkpt lat="51.9477856066" lon="-1.9730586838"><ele>103.96</ele><time>2015-01-28T10:12:29Z</time></trkpt><trkpt lat="51.9476442039" lon="-1.9730716757"><ele>104.92</ele><time>2015-01-28T10:12:43Z</time></trkpt><trkpt lat="51.9475287013" lon="-1.9730825722"><ele>105.40</ele><time>2015-01-28T10:12:57Z</time></trkpt><trkpt lat="51.9474090077" lon="-1.9730920438"><ele>105.40</ele><time>2015-01-28T10:13:12Z</time></trkpt><trkpt lat="51.9473155495" lon="-1.9731883518"><ele>106.36</ele><time>2015-01-28T10:13:26Z</time></trkpt><trkpt lat="51.9472593907" lon="-1.9731366355"><ele>106.36</ele><time>2015-01-28T10:13:39Z</time></trkpt><trkpt lat="51.9472313952" lon="-1.9731306005"><ele>105.88</ele><time>2015-01-28T10:13:57Z</time></trkpt><trkpt lat="51.9472062495" lon="-1.9731093105"><ele>105.88</ele><time>2015-01-28T10:14:19Z</time></trkpt><trkpt lat="51.9472132903" lon="-1.9730996713"><ele>106.36</ele><time>2015-01-28T10:14:43Z</time></trkpt><trkpt lat="51.9472635817" lon="-1.9729736913"><ele>105.88</ele><time>2015-01-28T10:15:02Z</time></trkpt><trkpt lat="51.9473126158" lon="-1.9728655647"><ele>105.88</ele><time>2015-01-28T10:15:10Z</time></trkpt><trkpt lat="51.9473991171" lon="-1.9727166183"><ele>105.88</ele><time>2015-01-28T10:15:22Z</time></trkpt><trkpt lat="51.9475212414" lon="-1.9725422747"><ele>105.40</ele><time>2015-01-28T10:15:40Z</time></trkpt><trkpt lat="51.9476248417" lon="-1.9723719545"><ele>104.92</ele><time>2015-01-28T10:15:56Z</time></trkpt><trkpt lat="51.9476788212" lon="-1.9722710364"><ele>104.92</ele><time>2015-01-28T10:16:04Z</time></trkpt><trkpt lat="51.9477905519" lon="-1.9721199106"><ele>104.92</ele><time>2015-01-28T10:16:20Z</time></trkpt><trkpt lat="51.9478597865" lon="-1.9720299728"><ele>104.44</ele><time>2015-01-28T10:16:27Z</time></trkpt><trkpt lat="51.9479552563" lon="-1.9718144741"><ele>103.96</ele><time>2015-01-28T10:16:43Z</time></trkpt><trkpt lat="51.9480472058" lon="-1.9716242887"><ele>103.48</ele><time>2015-01-28T10:16:57Z</time></trkpt><trkpt lat="51.9481452741" lon="-1.9713813812"><ele>103.48</ele><time>2015-01-28T10:17:12Z</time></trkpt><trkpt lat="51.9482425041" lon="-1.9712059479"><ele>102.52</ele><time>2015-01-28T10:17:28Z</time></trkpt><trkpt lat="51.9482461922" lon="-1.9711932912"><ele>102.52</ele><time>2015-01-28T10:17:29Z</time></trkpt><trkpt lat="51.9483562466" lon="-1.9709954783"><ele>102.52</ele><time>2015-01-28T10:17:45Z</time></trkpt><trkpt lat="51.9484715816" lon="-1.9707575161"><ele>101.56</ele><time>2015-01-28T10:18:00Z</time></trkpt><trkpt lat="51.9485816360" lon="-1.9705308694"><ele>100.11</ele><time>2015-01-28T10:18:15Z</time></trkpt><trkpt lat="51.9487115555" lon="-1.9702551048"><ele>98.19</ele><time>2015-01-28T10:18:32Z</time></trkpt><trkpt lat="51.9488002360" lon="-1.9700097665"><ele>98.19</ele><time>2015-01-28T10:18:49Z</time></trkpt><trkpt lat="51.9489553850" lon="-1.9697158970"><ele>96.27</ele><time>2015-01-28T10:19:09Z</time></trkpt><trkpt lat="51.9490903337" lon="-1.9694442395"><ele>94.83</ele><time>2015-01-28T10:19:28Z</time></trkpt><trkpt lat="51.9492378552" lon="-1.9691869151"><ele>93.87</ele><time>2015-01-28T10:19:47Z</time></trkpt><trkpt lat="51.9493798446" lon="-1.9689305965"><ele>93.39</ele><time>2015-01-28T10:20:05Z</time></trkpt><trkpt lat="51.9495170563" lon="-1.9686809834"><ele>93.39</ele><time>2015-01-28T10:20:22Z</time></trkpt><trkpt lat="51.9495283719" lon="-1.9686549995"><ele>93.39</ele><time>2015-01-28T10:20:24Z</time></trkpt><trkpt lat="51.9495632406" lon="-1.9685887825"><ele>92.90</ele><time>2015-01-28T10:20:28Z</time></trkpt><trkpt lat="51.9497261010" lon="-1.9683343079"><ele>92.90</ele><time>2015-01-28T10:20:49Z</time></trkpt><trkpt lat="51.9497809187" lon="-1.9682182185"><ele>90.50</ele><time>2015-01-28T10:21:04Z</time></trkpt><trkpt lat="51.9497813378" lon="-1.9682136085"><ele>94.35</ele><time>2015-01-28T10:21:08Z</time></trkpt><trkpt lat="51.9497810025" lon="-1.9682119321"><ele>94.35</ele><time>2015-01-28T10:21:09Z</time></trkpt><trkpt lat="51.9497786555" lon="-1.9682100043"><ele>97.23</ele><time>2015-01-28T10:21:13Z</time></trkpt><trkpt lat="51.9497795776" lon="-1.9682089984"><ele>100.11</ele><time>2015-01-28T10:21:15Z</time></trkpt><trkpt lat="51.9497790746" lon="-1.9682074059"><ele>95.79</ele><time>2015-01-28T10:21:19Z</time></trkpt><trkpt lat="51.9497793261" lon="-1.9682071544"><ele>97.23</ele><time>2015-01-28T10:21:25Z</time></trkpt><trkpt lat="51.9497797452" lon="-1.9682065677"><ele>94.35</ele><time>2015-01-28T10:21:29Z</time></trkpt><trkpt lat="51.9497799128" lon="-1.9682062324"><ele>89.06</ele><time>2015-01-28T10:21:33Z</time></trkpt><trkpt lat="51.9497798290" lon="-1.9682058133"><ele>90.02</ele><time>2015-01-28T10:21:34Z</time></trkpt><trkpt lat="51.9497807510" lon="-1.9682048075"><ele>89.54</ele><time>2015-01-28T10:21:49Z</time></trkpt><trkpt lat="51.9497828465" lon="-1.9682021253"><ele>88.10</ele><time>2015-01-28T10:22:12Z</time></trkpt><trkpt lat="51.9497841876" lon="-1.9682025444"><ele>86.18</ele><time>2015-01-28T10:22:22Z</time></trkpt><trkpt lat="51.9497843552" lon="-1.9682031311"><ele>89.54</ele><time>2015-01-28T10:22:23Z</time></trkpt><trkpt lat="51.9497844391" lon="-1.9682037178"><ele>89.54</ele><time>2015-01-28T10:22:24Z</time></trkpt><trkpt lat="51.9497852772" lon="-1.9682050589"><ele>87.62</ele><time>2015-01-28T10:22:27Z</time></trkpt><trkpt lat="51.9497887976" lon="-1.9682027120"><ele>88.10</ele><time>2015-01-28T10:22:53Z</time></trkpt><trkpt lat="51.9497908931" lon="-1.9682012871"><ele>89.06</ele><time>2015-01-28T10:23:17Z</time></trkpt><trkpt lat="51.9497893844" lon="-1.9681985211"><ele>89.06</ele><time>2015-01-28T10:23:49Z</time></trkpt><trkpt lat="51.9497882947" lon="-1.9681931566"><ele>89.06</ele><time>2015-01-28T10:24:22Z</time></trkpt><trkpt lat="51.9497894682" lon="-1.9681870379"><ele>88.10</ele><time>2015-01-28T10:24:55Z</time></trkpt><trkpt lat="51.9497888815" lon="-1.9681749679"><ele>87.62</ele><time>2015-01-28T10:25:13Z</time></trkpt><trkpt lat="51.9498238340" lon="-1.9681351539"><ele>88.10</ele><time>2015-01-28T10:25:17Z</time></trkpt><trkpt lat="51.9499084074" lon="-1.9678800087"><ele>87.62</ele><time>2015-01-28T10:25:33Z</time></trkpt><trkpt lat="51.9499778096" lon="-1.9676075969"><ele>87.14</ele><time>2015-01-28T10:25:48Z</time></trkpt><trkpt lat="51.9500832539" lon="-1.9674032461"><ele>87.62</ele><time>2015-01-28T10:26:03Z</time></trkpt><trkpt lat="51.9501824118" lon="-1.9672012422"><ele>88.58</ele><time>2015-01-28T10:26:17Z</time></trkpt><trkpt lat="51.9502590224" lon="-1.9670240488"><ele>85.21</ele><time>2015-01-28T10:26:30Z</time></trkpt><trkpt lat="51.9503419194" lon="-1.9667770341"><ele>85.69</ele><time>2015-01-28T10:26:46Z</time></trkpt><trkpt lat="51.9503621198" lon="-1.9667345379"><ele>85.69</ele><time>2015-01-28T10:26:49Z</time></trkpt><trkpt lat="51.9504237268" lon="-1.9664801471"><ele>84.25</ele><time>2015-01-28T10:27:06Z</time></trkpt><trkpt lat="51.9504881836" lon="-1.9662826695"><ele>84.73</ele><time>2015-01-28T10:27:22Z</time></trkpt><trkpt lat="51.9505466893" lon="-1.9660727028"><ele>83.77</ele><time>2015-01-28T10:27:37Z</time></trkpt><trkpt lat="51.9505424984" lon="-1.9659972657"><ele>83.77</ele><time>2015-01-28T10:27:55Z</time></trkpt><trkpt lat="51.9505549036" lon="-1.9659505785"><ele>84.25</ele><time>2015-01-28T10:28:06Z</time></trkpt><trkpt lat="51.9506241381" lon="-1.9657939207"><ele>84.25</ele><time>2015-01-28T10:28:20Z</time></trkpt><trkpt lat="51.9506502058" lon="-1.9657128677"><ele>83.29</ele><time>2015-01-28T10:28:33Z</time></trkpt><trkpt lat="51.9506552350" lon="-1.9656951819"><ele>83.77</ele><time>2015-01-28T10:28:50Z</time></trkpt><trkpt lat="51.9506336935" lon="-1.9657004625"><ele>83.77</ele><time>2015-01-28T10:29:10Z</time></trkpt><trkpt lat="51.9505446777" lon="-1.9656303898"><ele>84.73</ele><time>2015-01-28T10:29:22Z</time></trkpt><trkpt lat="51.9503754470" lon="-1.9655750692"><ele>84.73</ele><time>2015-01-28T10:29:37Z</time></trkpt><trkpt lat="51.9503565878" lon="-1.9655703753"><ele>84.73</ele><time>2015-01-28T10:29:39Z</time></trkpt><trkpt lat="51.9503074698" lon="-1.9655621611"><ele>85.21</ele><time>2015-01-28T10:29:56Z</time></trkpt><trkpt lat="51.9502750318" lon="-1.9655487500"><ele>85.69</ele><time>2015-01-28T10:30:15Z</time></trkpt><trkpt lat="51.9501467887" lon="-1.9655035716"><ele>86.66</ele><time>2015-01-28T10:30:29Z</time></trkpt><trkpt lat="51.9501336291" lon="-1.9654999673"><ele>86.66</ele><time>2015-01-28T10:30:30Z</time></trkpt><trkpt lat="51.9500224851" lon="-1.9654491730"><ele>87.62</ele><time>2015-01-28T10:30:39Z</time></trkpt><trkpt lat="51.9498932362" lon="-1.9653077703"><ele>85.69</ele><time>2015-01-28T10:30:53Z</time></trkpt><trkpt lat="51.9498587865" lon="-1.9652687944"><ele>86.18</ele><time>2015-01-28T10:30:56Z</time></trkpt><trkpt lat="51.9497647416" lon="-1.9650488533"><ele>85.21</ele><time>2015-01-28T10:31:12Z</time></trkpt><trkpt lat="51.9497325551" lon="-1.9648740068"><ele>86.18</ele><time>2015-01-28T10:31:23Z</time></trkpt><trkpt lat="51.9496676791" lon="-1.9646393135"><ele>87.14</ele><time>2015-01-28T10:31:38Z</time></trkpt><trkpt lat="51.9496412762" lon="-1.9645653851"><ele>85.69</ele><time>2015-01-28T10:31:43Z</time></trkpt><trkpt lat="51.9496240094" lon="-1.9645350426"><ele>85.69</ele><time>2015-01-28T10:31:45Z</time></trkpt><trkpt lat="51.9495630730" lon="-1.9643606152"><ele>84.73</ele><time>2015-01-28T10:31:55Z</time></trkpt><trkpt lat="51.9494440500" lon="-1.9640578609"><ele>83.77</ele><time>2015-01-28T10:32:14Z</time></trkpt><trkpt lat="51.9493413717" lon="-1.9637679309"><ele>82.33</ele><time>2015-01-28T10:32:32Z</time></trkpt><trkpt lat="51.9492631685" lon="-1.9634899031"><ele>81.85</ele><time>2015-01-28T10:32:48Z</time></trkpt><trkpt lat="51.9491949398" lon="-1.9631798565"><ele>79.93</ele><time>2015-01-28T10:33:04Z</time></trkpt><trkpt lat="51.9491069298" lon="-1.9628768507"><ele>78.48</ele><time>2015-01-28T10:33:21Z</time></trkpt><trkpt lat="51.9490923453" lon="-1.9628400542"><ele>78.48</ele><time>2015-01-28T10:33:24Z</time></trkpt><trkpt lat="51.9490437303" lon="-1.9627338555"><ele>77.52</ele><time>2015-01-28T10:33:35Z</time></trkpt><trkpt lat="51.9489815366" lon="-1.9625444245"><ele>78.48</ele><time>2015-01-28T10:33:52Z</time></trkpt><trkpt lat="51.9489574805" lon="-1.9623157661"><ele>79.93</ele><time>2015-01-28T10:34:06Z</time></trkpt><trkpt lat="51.9489819556" lon="-1.9622662291"><ele>78.97</ele><time>2015-01-28T10:34:21Z</time></trkpt><trkpt lat="51.9489795249" lon="-1.9622699171"><ele>78.97</ele><time>2015-01-28T10:34:42Z</time></trkpt><trkpt lat="51.9489052612" lon="-1.9621884450"><ele>78.97</ele><time>2015-01-28T10:35:03Z</time></trkpt><trkpt lat="51.9488584064" lon="-1.9621151872"><ele>79.45</ele><time>2015-01-28T10:35:14Z</time></trkpt><trkpt lat="51.9488317519" lon="-1.9619322941"><ele>78.48</ele><time>2015-01-28T10:35:27Z</time></trkpt><trkpt lat="51.9487800356" lon="-1.9616397657"><ele>79.45</ele><time>2015-01-28T10:35:43Z</time></trkpt><trkpt lat="51.9487204403" lon="-1.9613600615"><ele>79.93</ele><time>2015-01-28T10:36:02Z</time></trkpt><trkpt lat="51.9487035088" lon="-1.9613008853"><ele>80.41</ele><time>2015-01-28T10:36:06Z</time></trkpt><trkpt lat="51.9486333523" lon="-1.9610126317"><ele>81.85</ele><time>2015-01-28T10:36:23Z</time></trkpt><trkpt lat="51.9485840667" lon="-1.9607803691"><ele>81.85</ele><time>2015-01-28T10:36:36Z</time></trkpt><trkpt lat="51.9485744275" lon="-1.9607463386"><ele>81.85</ele><time>2015-01-28T10:36:38Z</time></trkpt><trkpt lat="51.9484889321" lon="-1.9604374655"><ele>83.77</ele><time>2015-01-28T10:36:53Z</time></trkpt><trkpt lat="51.9484585058" lon="-1.9602577575"><ele>85.21</ele><time>2015-01-28T10:37:06Z</time></trkpt><trkpt lat="51.9483730942" lon="-1.9600829948"><ele>85.69</ele><time>2015-01-28T10:37:23Z</time></trkpt><trkpt lat="51.9483020157" lon="-1.9600021094"><ele>87.14</ele><time>2015-01-28T10:37:39Z</time></trkpt><trkpt lat="51.9481622893" lon="-1.9598278496"><ele>88.10</ele><time>2015-01-28T10:37:56Z</time></trkpt><trkpt lat="51.9480575994" lon="-1.9597422704"><ele>88.58</ele><time>2015-01-28T10:38:13Z</time></trkpt><trkpt lat="51.9480392430" lon="-1.9597171247"><ele>89.06</ele><time>2015-01-28T10:38:32Z</time></trkpt><trkpt lat="51.9479579385" lon="-1.9596882071"><ele>88.58</ele><time>2015-01-28T10:38:48Z</time></trkpt><trkpt lat="51.9479150232" lon="-1.9596602954"><ele>88.10</ele><time>2015-01-28T10:38:51Z</time></trkpt><trkpt lat="51.9477703515" lon="-1.9595435355"><ele>89.06</ele><time>2015-01-28T10:39:06Z</time></trkpt><trkpt lat="51.9477343932" lon="-1.9594996143"><ele>89.54</ele><time>2015-01-28T10:39:10Z</time></trkpt><trkpt lat="51.9477110077" lon="-1.9594853651"><ele>89.06</ele><time>2015-01-28T10:39:12Z</time></trkpt><trkpt lat="51.9475266896" lon="-1.9593223371"><ele>89.06</ele><time>2015-01-28T10:39:31Z</time></trkpt><trkpt lat="51.9473809283" lon="-1.9591894839"><ele>89.06</ele><time>2015-01-28T10:39:45Z</time></trkpt><trkpt lat="51.9472054951" lon="-1.9590850454"><ele>89.06</ele><time>2015-01-28T10:40:01Z</time></trkpt><trkpt lat="51.9470309000" lon="-1.9589594845"><ele>88.58</ele><time>2015-01-28T10:40:18Z</time></trkpt><trkpt lat="51.9469615817" lon="-1.9588338397"><ele>90.02</ele><time>2015-01-28T10:40:29Z</time></trkpt><trkpt lat="51.9469319098" lon="-1.9587347656"><ele>90.02</ele><time>2015-01-28T10:40:36Z</time></trkpt><trkpt lat="51.9468662795" lon="-1.9583743438"><ele>91.94</ele><time>2015-01-28T10:40:55Z</time></trkpt><trkpt lat="51.9468376134" lon="-1.9581920374"><ele>91.94</ele><time>2015-01-28T10:41:11Z</time></trkpt><trkpt lat="51.9468422234" lon="-1.9580243155"><ele>92.42</ele><time>2015-01-28T10:41:29Z</time></trkpt><trkpt lat="51.9468874857" lon="-1.9577826653"><ele>92.42</ele><time>2015-01-28T10:41:46Z</time></trkpt><trkpt lat="51.9469138049" lon="-1.9577472936"><ele>93.39</ele><time>2015-01-28T10:41:58Z</time></trkpt><trkpt lat="51.9468758348" lon="-1.9577054679"><ele>93.39</ele><time>2015-01-28T10:42:03Z</time></trkpt><trkpt lat="51.9468110427" lon="-1.9577245787"><ele>93.87</ele><time>2015-01-28T10:42:09Z</time></trkpt><trkpt lat="51.9467354380" lon="-1.9576983433"><ele>93.87</ele><time>2015-01-28T10:42:16Z</time></trkpt><trkpt lat="51.9465472642" lon="-1.9575676695"><ele>93.87</ele><time>2015-01-28T10:42:33Z</time></trkpt><trkpt lat="51.9463533070" lon="-1.9574610516"><ele>94.83</ele><time>2015-01-28T10:42:50Z</time></trkpt><trkpt lat="51.9461602718" lon="-1.9574105926"><ele>94.83</ele><time>2015-01-28T10:43:07Z</time></trkpt><trkpt lat="51.9459788036" lon="-1.9573287014"><ele>94.35</ele><time>2015-01-28T10:43:23Z</time></trkpt><trkpt lat="51.9458819926" lon="-1.9572955091"><ele>93.87</ele><time>2015-01-28T10:43:33Z</time></trkpt><trkpt lat="51.9458306115" lon="-1.9572846126"><ele>93.87</ele><time>2015-01-28T10:43:39Z</time></trkpt><trkpt lat="51.9456725288" lon="-1.9572396018"><ele>92.90</ele><time>2015-01-28T10:43:56Z</time></trkpt><trkpt lat="51.9455173798" lon="-1.9571932498"><ele>90.98</ele><time>2015-01-28T10:44:11Z</time></trkpt><trkpt lat="51.9454918150" lon="-1.9571895618"><ele>90.50</ele><time>2015-01-28T10:44:14Z</time></trkpt><trkpt lat="51.9454656634" lon="-1.9571803417"><ele>90.50</ele><time>2015-01-28T10:44:16Z</time></trkpt><trkpt lat="51.9452645816" lon="-1.9571319781"><ele>90.50</ele><time>2015-01-28T10:44:34Z</time></trkpt><trkpt lat="51.9450966083" lon="-1.9570921641"><ele>92.90</ele><time>2015-01-28T10:44:52Z</time></trkpt><trkpt lat="51.9449682813" lon="-1.9570287131"><ele>94.35</ele><time>2015-01-28T10:45:04Z</time></trkpt><trkpt lat="51.9447893277" lon="-1.9569702912"><ele>94.83</ele><time>2015-01-28T10:45:20Z</time></trkpt><trkpt lat="51.9446428120" lon="-1.9569128752"><ele>93.87</ele><time>2015-01-28T10:45:33Z</time></trkpt><trkpt lat="51.9444535486" lon="-1.9568470772"><ele>95.31</ele><time>2015-01-28T10:45:50Z</time></trkpt><trkpt lat="51.9442816358" lon="-1.9567723945"><ele>94.35</ele><time>2015-01-28T10:46:06Z</time></trkpt><trkpt lat="51.9441243075" lon="-1.9567070156"><ele>93.39</ele><time>2015-01-28T10:46:21Z</time></trkpt><trkpt lat="51.9440364651" lon="-1.9566664472"><ele>93.39</ele><time>2015-01-28T10:46:29Z</time></trkpt><trkpt lat="51.9439012650" lon="-1.9566357695"><ele>92.90</ele><time>2015-01-28T10:46:43Z</time></trkpt><trkpt lat="51.9437488820" lon="-1.9566309080"><ele>91.46</ele><time>2015-01-28T10:46:58Z</time></trkpt><trkpt lat="51.9435767177" lon="-1.9566066843"><ele>88.10</ele><time>2015-01-28T10:47:14Z</time></trkpt><trkpt lat="51.9434017036" lon="-1.9565418921"><ele>88.10</ele><time>2015-01-28T10:47:30Z</time></trkpt><trkpt lat="51.9433086645" lon="-1.9565910101"><ele>88.10</ele><time>2015-01-28T10:47:44Z</time></trkpt><trkpt lat="51.9432133622" lon="-1.9567815308"><ele>89.06</ele><time>2015-01-28T10:48:00Z</time></trkpt><trkpt lat="51.9430613145" lon="-1.9567578100"><ele>88.58</ele><time>2015-01-28T10:48:16Z</time></trkpt><trkpt lat="51.9430072512" lon="-1.9567045011"><ele>87.62</ele><time>2015-01-28T10:48:28Z</time></trkpt><trkpt lat="51.9429825246" lon="-1.9566457439"><ele>88.10</ele><time>2015-01-28T10:48:40Z</time></trkpt><trkpt lat="51.9429735560" lon="-1.9566356018"><ele>88.58</ele><time>2015-01-28T10:48:59Z</time></trkpt><trkpt lat="51.9429659285" lon="-1.9566220231"><ele>88.10</ele><time>2015-01-28T10:49:14Z</time></trkpt><trkpt lat="51.9429401960" lon="-1.9566133060"><ele>88.10</ele><time>2015-01-28T10:49:33Z</time></trkpt><trkpt lat="51.9429002143" lon="-1.9566351827"><ele>87.62</ele><time>2015-01-28T10:49:48Z</time></trkpt><trkpt lat="51.9427891541" lon="-1.9566708896"><ele>88.10</ele><time>2015-01-28T10:50:03Z</time></trkpt><trkpt lat="51.9426484220" lon="-1.9567735679"><ele>88.10</ele><time>2015-01-28T10:50:18Z</time></trkpt><trkpt lat="51.9426127989" lon="-1.9568050839"><ele>87.14</ele><time>2015-01-28T10:50:22Z</time></trkpt><trkpt lat="51.9425190892" lon="-1.9569890667"><ele>88.58</ele><time>2015-01-28T10:50:34Z</time></trkpt><trkpt lat="51.9425108749" lon="-1.9571204949"><ele>88.58</ele><time>2015-01-28T10:50:48Z</time></trkpt><trkpt lat="51.9425638486" lon="-1.9572617300"><ele>88.10</ele><time>2015-01-28T10:51:01Z</time></trkpt><trkpt lat="51.9427105319" lon="-1.9573847763"><ele>87.62</ele><time>2015-01-28T10:51:23Z</time></trkpt><trkpt lat="51.9428572152" lon="-1.9575022906"><ele>87.14</ele><time>2015-01-28T10:51:41Z</time></trkpt><trkpt lat="51.9429745618" lon="-1.9575965870"><ele>87.62</ele><time>2015-01-28T10:51:58Z</time></trkpt><trkpt lat="51.9431231730" lon="-1.9576888718"><ele>86.66</ele><time>2015-01-28T10:52:12Z</time></trkpt><trkpt lat="51.9433013722" lon="-1.9578653947"><ele>86.66</ele><time>2015-01-28T10:52:29Z</time></trkpt><trkpt lat="51.9434362371" lon="-1.9580348767"><ele>86.66</ele><time>2015-01-28T10:52:46Z</time></trkpt><trkpt lat="51.9435724430" lon="-1.9581575878"><ele>86.18</ele><time>2015-01-28T10:52:59Z</time></trkpt><trkpt lat="51.9438112434" lon="-1.9583246391"><ele>84.73</ele><time>2015-01-28T10:53:14Z</time></trkpt><trkpt lat="51.9439394865" lon="-1.9585158303"><ele>85.21</ele><time>2015-01-28T10:53:29Z</time></trkpt><trkpt lat="51.9440217130" lon="-1.9586292375"><ele>85.21</ele><time>2015-01-28T10:53:39Z</time></trkpt><trkpt lat="51.9441581704" lon="-1.9588292297"><ele>86.18</ele><time>2015-01-28T10:53:56Z</time></trkpt><trkpt lat="51.9442922808" lon="-1.9589995500"><ele>86.66</ele><time>2015-01-28T10:54:12Z</time></trkpt><trkpt lat="51.9443600066" lon="-1.9591231830"><ele>86.66</ele><time>2015-01-28T10:54:20Z</time></trkpt><trkpt lat="51.9444743358" lon="-1.9594380073"><ele>84.25</ele><time>2015-01-28T10:54:39Z</time></trkpt><trkpt lat="51.9445439056" lon="-1.9596351497"><ele>83.77</ele><time>2015-01-28T10:54:54Z</time></trkpt><trkpt lat="51.9445657823" lon="-1.9597151969"><ele>83.77</ele><time>2015-01-28T10:55:01Z</time></trkpt><trkpt lat="51.9446245395" lon="-1.9598926418"><ele>83.77</ele><time>2015-01-28T10:55:15Z</time></trkpt><trkpt lat="51.9447459932" lon="-1.9599648938"><ele>83.77</ele><time>2015-01-28T10:55:30Z</time></trkpt><trkpt lat="51.9448653515" lon="-1.9600492157"><ele>85.21</ele><time>2015-01-28T10:55:45Z</time></trkpt><trkpt lat="51.9450173993" lon="-1.9600366428"><ele>86.66</ele><time>2015-01-28T10:56:04Z</time></trkpt><trkpt lat="51.9450503401" lon="-1.9600303564"><ele>88.10</ele><time>2015-01-28T10:56:07Z</time></trkpt><trkpt lat="51.9452390168" lon="-1.9600750320"><ele>88.10</ele><time>2015-01-28T10:56:25Z</time></trkpt><trkpt lat="51.9453768991" lon="-1.9600959867"><ele>86.18</ele><time>2015-01-28T10:56:42Z</time></trkpt><trkpt lat="51.9454204850" lon="-1.9601004291"><ele>86.66</ele><time>2015-01-28T10:56:47Z</time></trkpt><trkpt lat="51.9455124345" lon="-1.9601942226"><ele>86.66</ele><time>2015-01-28T10:57:01Z</time></trkpt><trkpt lat="51.9455427770" lon="-1.9602171890"><ele>86.66</ele><time>2015-01-28T10:57:20Z</time></trkpt><trkpt lat="51.9455623906" lon="-1.9602633733"><ele>87.62</ele><time>2015-01-28T10:57:36Z</time></trkpt><trkpt lat="51.9455623068" lon="-1.9602794666"><ele>87.14</ele><time>2015-01-28T10:58:04Z</time></trkpt><trkpt lat="51.9455580320" lon="-1.9602762815"><ele>87.14</ele><time>2015-01-28T10:58:21Z</time></trkpt><trkpt lat="51.9455564395" lon="-1.9602775387"><ele>88.10</ele><time>2015-01-28T10:58:43Z</time></trkpt><trkpt lat="51.9455478061" lon="-1.9602632895"><ele>87.14</ele><time>2015-01-28T10:59:08Z</time></trkpt><trkpt lat="51.9455340598" lon="-1.9602485374"><ele>87.14</ele><time>2015-01-28T10:59:27Z</time></trkpt><trkpt lat="51.9455525000" lon="-1.9602455199"><ele>87.14</ele><time>2015-01-28T10:59:49Z</time></trkpt><trkpt lat="51.9455540925" lon="-1.9602561649"><ele>86.66</ele><time>2015-01-28T11:00:09Z</time></trkpt><trkpt lat="51.9455573615" lon="-1.9602562487"><ele>86.18</ele><time>2015-01-28T11:00:37Z</time></trkpt><trkpt lat="51.9455589540" lon="-1.9602568354"><ele>86.66</ele><time>2015-01-28T11:01:02Z</time></trkpt><trkpt lat="51.9455580320" lon="-1.9602523092"><ele>87.14</ele><time>2015-01-28T11:01:22Z</time></trkpt><trkpt lat="51.9455534220" lon="-1.9602554105"><ele>86.66</ele><time>2015-01-28T11:01:48Z</time></trkpt><trkpt lat="51.9455446210" lon="-1.9602471124"><ele>87.62</ele><time>2015-01-28T11:02:09Z</time></trkpt><trkpt lat="51.9455453753" lon="-1.9602512196"><ele>86.18</ele><time>2015-01-28T11:02:33Z</time></trkpt><trkpt lat="51.9455427770" lon="-1.9602526445"><ele>86.18</ele><time>2015-01-28T11:02:54Z</time></trkpt><trkpt lat="51.9455415197" lon="-1.9602519739"><ele>86.18</ele><time>2015-01-28T11:03:27Z</time></trkpt><trkpt lat="51.9455417711" lon="-1.9602541532"><ele>86.66</ele><time>2015-01-28T11:03:56Z</time></trkpt><trkpt lat="51.9455420226" lon="-1.9602560811"><ele>87.14</ele><time>2015-01-28T11:04:29Z</time></trkpt><trkpt lat="51.9455427770" lon="-1.9602622837"><ele>86.18</ele><time>2015-01-28T11:04:56Z</time></trkpt><trkpt lat="51.9455685932" lon="-1.9602633733"><ele>87.14</ele><time>2015-01-28T11:05:18Z</time></trkpt><trkpt lat="51.9455703534" lon="-1.9602653850"><ele>87.62</ele><time>2015-01-28T11:05:37Z</time></trkpt><trkpt lat="51.9455720298" lon="-1.9602691568"><ele>87.62</ele><time>2015-01-28T11:06:03Z</time></trkpt><trkpt lat="51.9455778133" lon="-1.9602657203"><ele>89.06</ele><time>2015-01-28T11:06:30Z</time></trkpt><trkpt lat="51.9455696829" lon="-1.9602637086"><ele>88.10</ele><time>2015-01-28T11:06:49Z</time></trkpt><trkpt lat="51.9455721974" lon="-1.9602609426"><ele>87.62</ele><time>2015-01-28T11:07:17Z</time></trkpt><trkpt lat="51.9455730356" lon="-1.9602593500"><ele>87.14</ele><time>2015-01-28T11:07:42Z</time></trkpt><trkpt lat="51.9455752987" lon="-1.9602442626"><ele>89.06</ele><time>2015-01-28T11:08:02Z</time></trkpt><trkpt lat="51.9456753787" lon="-1.9602830708"><ele>89.54</ele><time>2015-01-28T11:08:16Z</time></trkpt><trkpt lat="51.9458218105" lon="-1.9603818934"><ele>88.10</ele><time>2015-01-28T11:08:32Z</time></trkpt><trkpt lat="51.9459791388" lon="-1.9604713283"><ele>88.10</ele><time>2015-01-28T11:08:45Z</time></trkpt><trkpt lat="51.9461845793" lon="-1.9606650341"><ele>89.06</ele><time>2015-01-28T11:09:04Z</time></trkpt><trkpt lat="51.9463631138" lon="-1.9607760105"><ele>88.58</ele><time>2015-01-28T11:09:21Z</time></trkpt><trkpt lat="51.9465651177" lon="-1.9609282259"><ele>88.58</ele><time>2015-01-28T11:09:40Z</time></trkpt><trkpt lat="51.9467391260" lon="-1.9610794354"><ele>89.06</ele><time>2015-01-28T11:09:57Z</time></trkpt><trkpt lat="51.9469136372" lon="-1.9612286333"><ele>89.06</ele><time>2015-01-28T11:10:13Z</time></trkpt><trkpt lat="51.9469180796" lon="-1.9612492528"><ele>89.54</ele><time>2015-01-28T11:10:14Z</time></trkpt><trkpt lat="51.9471152220" lon="-1.9613935892"><ele>88.10</ele><time>2015-01-28T11:10:29Z</time></trkpt><trkpt lat="51.9471974485" lon="-1.9615074992"><ele>88.10</ele><time>2015-01-28T11:10:38Z</time></trkpt><trkpt lat="51.9472700357" lon="-1.9617337268"><ele>89.54</ele><time>2015-01-28T11:10:49Z</time></trkpt><trkpt lat="51.9473213330" lon="-1.9618295319"><ele>89.06</ele><time>2015-01-28T11:10:55Z</time></trkpt><trkpt lat="51.9474281184" lon="-1.9621197972"><ele>89.06</ele><time>2015-01-28T11:11:10Z</time></trkpt><trkpt lat="51.9475256838" lon="-1.9623539876"><ele>88.10</ele><time>2015-01-28T11:11:27Z</time></trkpt><trkpt lat="51.9475757238" lon="-1.9626186043"><ele>85.21</ele><time>2015-01-28T11:11:43Z</time></trkpt><trkpt lat="51.9476012886" lon="-1.9629232027"><ele>83.29</ele><time>2015-01-28T11:12:00Z</time></trkpt><trkpt lat="51.9476049766" lon="-1.9631524477"><ele>82.81</ele><time>2015-01-28T11:12:11Z</time></trkpt><trkpt lat="51.9476304576" lon="-1.9632743206"><ele>83.29</ele><time>2015-01-28T11:12:18Z</time></trkpt><trkpt lat="51.9476434495" lon="-1.9633210916"><ele>83.77</ele><time>2015-01-28T11:12:21Z</time></trkpt><trkpt lat="51.9476932380" lon="-1.9634943455"><ele>84.73</ele><time>2015-01-28T11:12:32Z</time></trkpt><trkpt lat="51.9477600418" lon="-1.9636799209"><ele>86.66</ele><time>2015-01-28T11:12:44Z</time></trkpt><trkpt lat="51.9478457887" lon="-1.9638265204"><ele>88.58</ele><time>2015-01-28T11:12:56Z</time></trkpt><trkpt lat="51.9478621334" lon="-1.9638628140"><ele>88.10</ele><time>2015-01-28T11:12:59Z</time></trkpt><trkpt lat="51.9479860179" lon="-1.9640913047"><ele>89.06</ele><time>2015-01-28T11:13:17Z</time></trkpt><trkpt lat="51.9479991775" lon="-1.9641251676"><ele>89.54</ele><time>2015-01-28T11:13:19Z</time></trkpt><trkpt lat="51.9481057953" lon="-1.9643653929"><ele>88.10</ele><time>2015-01-28T11:13:35Z</time></trkpt><trkpt lat="51.9482067134" lon="-1.9645335339"><ele>89.06</ele><time>2015-01-28T11:13:50Z</time></trkpt><trkpt lat="51.9482531492" lon="-1.9646078814"><ele>89.06</ele><time>2015-01-28T11:13:56Z</time></trkpt><trkpt lat="51.9483497925" lon="-1.9647486974"><ele>87.62</ele><time>2015-01-28T11:14:07Z</time></trkpt><trkpt lat="51.9484827295" lon="-1.9648882560"><ele>88.58</ele><time>2015-01-28T11:14:22Z</time></trkpt><trkpt lat="51.9486011658" lon="-1.9649983104"><ele>88.10</ele><time>2015-01-28T11:14:34Z</time></trkpt><trkpt lat="51.9487532135" lon="-1.9651475083"><ele>89.54</ele><time>2015-01-28T11:14:52Z</time></trkpt><trkpt lat="51.9489086978" lon="-1.9652649388"><ele>89.54</ele><time>2015-01-28T11:15:07Z</time></trkpt><trkpt lat="51.9490859751" lon="-1.9654161483"><ele>90.50</ele><time>2015-01-28T11:15:24Z</time></trkpt><trkpt lat="51.9492025673" lon="-1.9655435532"><ele>90.02</ele><time>2015-01-28T11:15:36Z</time></trkpt><trkpt lat="51.9493617397" lon="-1.9656245224"><ele>90.02</ele><time>2015-01-28T11:15:51Z</time></trkpt><trkpt lat="51.9493734743" lon="-1.9656290486"><ele>90.98</ele><time>2015-01-28T11:15:52Z</time></trkpt><trkpt lat="51.9495425373" lon="-1.9657862093"><ele>90.50</ele><time>2015-01-28T11:16:08Z</time></trkpt><trkpt lat="51.9495794177" lon="-1.9658345729"><ele>89.54</ele><time>2015-01-28T11:16:12Z</time></trkpt><trkpt lat="51.9497409370" lon="-1.9659957569"><ele>88.10</ele><time>2015-01-28T11:16:29Z</time></trkpt><trkpt lat="51.9498918951" lon="-1.9660960045"><ele>88.58</ele><time>2015-01-28T11:16:44Z</time></trkpt><trkpt lat="51.9500394166" lon="-1.9661791530"><ele>88.58</ele><time>2015-01-28T11:16:58Z</time></trkpt><trkpt lat="51.9501166139" lon="-1.9661758840"><ele>88.58</ele><time>2015-01-28T11:17:06Z</time></trkpt><trkpt lat="51.9502496347" lon="-1.9660986867"><ele>89.06</ele><time>2015-01-28T11:17:20Z</time></trkpt><trkpt lat="51.9504137523" lon="-1.9660364930"><ele>87.62</ele><time>2015-01-28T11:17:36Z</time></trkpt><trkpt lat="51.9505331106" lon="-1.9659369998"><ele>88.58</ele><time>2015-01-28T11:17:53Z</time></trkpt><trkpt lat="51.9506767765" lon="-1.9658744708"><ele>86.66</ele><time>2015-01-28T11:18:09Z</time></trkpt><trkpt lat="51.9508057740" lon="-1.9659450464"><ele>85.21</ele><time>2015-01-28T11:18:26Z</time></trkpt><trkpt lat="51.9509317540" lon="-1.9660426956"><ele>84.25</ele><time>2015-01-28T11:18:38Z</time></trkpt><trkpt lat="51.9510463346" lon="-1.9660775643"><ele>82.33</ele><time>2015-01-28T11:18:51Z</time></trkpt><trkpt lat="51.9512886554" lon="-1.9661338907"><ele>81.37</ele><time>2015-01-28T11:19:02Z</time></trkpt><trkpt lat="51.9514587242" lon="-1.9662234932"><ele>79.93</ele><time>2015-01-28T11:19:19Z</time></trkpt><trkpt lat="51.9514929224" lon="-1.9662452023"><ele>79.93</ele><time>2015-01-28T11:19:23Z</time></trkpt><trkpt lat="51.9516130351" lon="-1.9663684163"><ele>79.93</ele><time>2015-01-28T11:19:34Z</time></trkpt><trkpt lat="51.9516163040" lon="-1.9663577713"><ele>79.45</ele><time>2015-01-28T11:19:38Z</time></trkpt><trkpt lat="51.9516409468" lon="-1.9663518202"><ele>79.93</ele><time>2015-01-28T11:19:42Z</time></trkpt><trkpt lat="51.9518311322" lon="-1.9664358906"><ele>79.45</ele><time>2015-01-28T11:20:01Z</time></trkpt><trkpt lat="51.9519632310" lon="-1.9664898701"><ele>78.48</ele><time>2015-01-28T11:20:15Z</time></trkpt><trkpt lat="51.9520439487" lon="-1.9665469509"><ele>79.93</ele><time>2015-01-28T11:20:23Z</time></trkpt><trkpt lat="51.9521830883" lon="-1.9666060433"><ele>81.85</ele><time>2015-01-28T11:20:40Z</time></trkpt><trkpt lat="51.9522611238" lon="-1.9666401576"><ele>83.77</ele><time>2015-01-28T11:20:53Z</time></trkpt><trkpt lat="51.9524001796" lon="-1.9665496331"><ele>85.21</ele><time>2015-01-28T11:21:10Z</time></trkpt><trkpt lat="51.9524642173" lon="-1.9662951585"><ele>85.69</ele><time>2015-01-28T11:21:25Z</time></trkpt><trkpt lat="51.9525375590" lon="-1.9660728704"><ele>86.18</ele><time>2015-01-28T11:21:40Z</time></trkpt><trkpt lat="51.9526143372" lon="-1.9660065696"><ele>86.18</ele><time>2015-01-28T11:21:44Z</time></trkpt><trkpt lat="51.9526619464" lon="-1.9657639135"><ele>86.18</ele><time>2015-01-28T11:21:59Z</time></trkpt><trkpt lat="51.9526871759" lon="-1.9655292202"><ele>85.69</ele><time>2015-01-28T11:22:13Z</time></trkpt><trkpt lat="51.9527051970" lon="-1.9654680323"><ele>86.18</ele><time>2015-01-28T11:22:19Z</time></trkpt><trkpt lat="51.9527573325" lon="-1.9652671181"><ele>86.18</ele><time>2015-01-28T11:22:34Z</time></trkpt><trkpt lat="51.9528509583" lon="-1.9652507734"><ele>86.18</ele><time>2015-01-28T11:22:45Z</time></trkpt><trkpt lat="51.9529575761" lon="-1.9652402122"><ele>86.18</ele><time>2015-01-28T11:23:03Z</time></trkpt><trkpt lat="51.9529725797" lon="-1.9652390387"><ele>85.69</ele><time>2015-01-28T11:23:27Z</time></trkpt><trkpt lat="51.9529746752" lon="-1.9652518630"><ele>84.73</ele><time>2015-01-28T11:23:49Z</time></trkpt><trkpt lat="51.9529717416" lon="-1.9652511925"><ele>85.69</ele><time>2015-01-28T11:24:09Z</time></trkpt><trkpt lat="51.9529735018" lon="-1.9652490132"><ele>84.73</ele><time>2015-01-28T11:24:30Z</time></trkpt><trkpt lat="51.9529765192" lon="-1.9652585685"><ele>85.69</ele><time>2015-01-28T11:24:56Z</time></trkpt><trkpt lat="51.9530233741" lon="-1.9651832152"><ele>85.69</ele><time>2015-01-28T11:25:15Z</time></trkpt><trkpt lat="51.9530364498" lon="-1.9650722388"><ele>85.69</ele><time>2015-01-28T11:25:22Z</time></trkpt><trkpt lat="51.9532485958" lon="-1.9647930376"><ele>84.73</ele><time>2015-01-28T11:25:41Z</time></trkpt><trkpt lat="51.9531723205" lon="-1.9646675605"><ele>83.77</ele><time>2015-01-28T11:25:56Z</time></trkpt><trkpt lat="51.9530366175" lon="-1.9645149261"><ele>81.37</ele><time>2015-01-28T11:26:09Z</time></trkpt><trkpt lat="51.9529114757" lon="-1.9643244892"><ele>78.97</ele><time>2015-01-28T11:26:25Z</time></trkpt><trkpt lat="51.9527999125" lon="-1.9641726092"><ele>76.56</ele><time>2015-01-28T11:26:37Z</time></trkpt><trkpt lat="51.9527061190" lon="-1.9639840163"><ele>74.64</ele><time>2015-01-28T11:26:53Z</time></trkpt><trkpt lat="51.9526873436" lon="-1.9638353214"><ele>75.12</ele><time>2015-01-28T11:27:05Z</time></trkpt><trkpt lat="51.9526772853" lon="-1.9637560286"><ele>74.64</ele><time>2015-01-28T11:27:17Z</time></trkpt><trkpt lat="51.9526709151" lon="-1.9635983650"><ele>75.12</ele><time>2015-01-28T11:27:25Z</time></trkpt><trkpt lat="51.9526717532" lon="-1.9634732231"><ele>74.64</ele><time>2015-01-28T11:27:31Z</time></trkpt><trkpt lat="51.9526616111" lon="-1.9632473309"><ele>74.16</ele><time>2015-01-28T11:27:43Z</time></trkpt><trkpt lat="51.9526381418" lon="-1.9630874041"><ele>74.16</ele><time>2015-01-28T11:27:56Z</time></trkpt><trkpt lat="51.9526362140" lon="-1.9629765954"><ele>74.64</ele><time>2015-01-28T11:28:04Z</time></trkpt><trkpt lat="51.9526497927" lon="-1.9628802035"><ele>75.12</ele><time>2015-01-28T11:28:09Z</time></trkpt><trkpt lat="51.9527076278" lon="-1.9627381302"><ele>75.12</ele><time>2015-01-28T11:28:16Z</time></trkpt><trkpt lat="51.9526927080" lon="-1.9624506310"><ele>74.16</ele><time>2015-01-28T11:28:33Z</time></trkpt><trkpt lat="51.9526242279" lon="-1.9622136746"><ele>74.16</ele><time>2015-01-28T11:28:50Z</time></trkpt><trkpt lat="51.9526248984" lon="-1.9622050412"><ele>73.20</ele><time>2015-01-28T11:28:51Z</time></trkpt><trkpt lat="51.9526373874" lon="-1.9621658977"><ele>73.68</ele><time>2015-01-28T11:28:54Z</time></trkpt><trkpt lat="51.9526411593" lon="-1.9620306976"><ele>73.68</ele><time>2015-01-28T11:29:06Z</time></trkpt><trkpt lat="51.9526725076" lon="-1.9619956613"><ele>74.16</ele><time>2015-01-28T11:29:18Z</time></trkpt><trkpt lat="51.9528744277" lon="-1.9618601259"><ele>75.60</ele><time>2015-01-28T11:29:33Z</time></trkpt><trkpt lat="51.9531087019" lon="-1.9617944118"><ele>77.52</ele><time>2015-01-28T11:29:51Z</time></trkpt><trkpt lat="51.9530984759" lon="-1.9617087487"><ele>76.56</ele><time>2015-01-28T11:30:09Z</time></trkpt><trkpt lat="51.9530859869" lon="-1.9616950024"><ele>77.52</ele><time>2015-01-28T11:30:20Z</time></trkpt><trkpt lat="51.9531121384" lon="-1.9616710301"><ele>76.56</ele><time>2015-01-28T11:30:24Z</time></trkpt><trkpt lat="51.9532612525" lon="-1.9615779072"><ele>76.08</ele><time>2015-01-28T11:30:41Z</time></trkpt><trkpt lat="51.9534690399" lon="-1.9614793360"><ele>76.08</ele><time>2015-01-28T11:30:55Z</time></trkpt><trkpt lat="51.9536960218" lon="-1.9613382686"><ele>75.60</ele><time>2015-01-28T11:31:11Z</time></trkpt><trkpt lat="51.9537933357" lon="-1.9613076746"><ele>75.60</ele><time>2015-01-28T11:31:19Z</time></trkpt><trkpt lat="51.9538325630" lon="-1.9612800144"><ele>75.60</ele><time>2015-01-28T11:31:22Z</time></trkpt><trkpt lat="51.9540003687" lon="-1.9611889869"><ele>76.56</ele><time>2015-01-28T11:31:39Z</time></trkpt><trkpt lat="51.9541632291" lon="-1.9611430541"><ele>75.12</ele><time>2015-01-28T11:31:55Z</time></trkpt><trkpt lat="51.9542351458" lon="-1.9611388631"><ele>74.64</ele><time>2015-01-28T11:32:02Z</time></trkpt><trkpt lat="51.9543587789" lon="-1.9611553755"><ele>74.16</ele><time>2015-01-28T11:32:15Z</time></trkpt><trkpt lat="51.9543676637" lon="-1.9611597341"><ele>73.68</ele><time>2015-01-28T11:32:16Z</time></trkpt><trkpt lat="51.9544087350" lon="-1.9611485861"><ele>72.72</ele><time>2015-01-28T11:32:20Z</time></trkpt><trkpt lat="51.9545507245" lon="-1.9610943552"><ele>73.20</ele><time>2015-01-28T11:32:34Z</time></trkpt><trkpt lat="51.9547037780" lon="-1.9610378612"><ele>72.24</ele><time>2015-01-28T11:32:49Z</time></trkpt><trkpt lat="51.9547818974" lon="-1.9609944429"><ele>71.76</ele><time>2015-01-28T11:33:04Z</time></trkpt><trkpt lat="51.9549598452" lon="-1.9610167388"><ele>71.76</ele><time>2015-01-28T11:33:21Z</time></trkpt><trkpt lat="51.9549901038" lon="-1.9610186666"><ele>72.72</ele><time>2015-01-28T11:33:34Z</time></trkpt><trkpt lat="51.9549946301" lon="-1.9610182475"><ele>70.31</ele><time>2015-01-28T11:33:39Z</time></trkpt><trkpt lat="51.9549808837" lon="-1.9610262942"><ele>72.24</ele><time>2015-01-28T11:34:04Z</time></trkpt><trkpt lat="51.9549705740" lon="-1.9610478356"><ele>71.76</ele><time>2015-01-28T11:34:19Z</time></trkpt><trkpt lat="51.9549725857" lon="-1.9610563852"><ele>72.24</ele><time>2015-01-28T11:34:43Z</time></trkpt><trkpt lat="51.9549664669" lon="-1.9610618334"><ele>71.27</ele><time>2015-01-28T11:35:01Z</time></trkpt><trkpt lat="51.9550175965" lon="-1.9610412139"><ele>72.72</ele><time>2015-01-28T11:35:15Z</time></trkpt><trkpt lat="51.9551821332" lon="-1.9610018190"><ele>72.24</ele><time>2015-01-28T11:35:29Z</time></trkpt><trkpt lat="51.9552489370" lon="-1.9610031601"><ele>69.83</ele><time>2015-01-28T11:35:50Z</time></trkpt><trkpt lat="51.9552712329" lon="-1.9609966222"><ele>69.83</ele><time>2015-01-28T11:35:51Z</time></trkpt><trkpt lat="51.9554404635" lon="-1.9609682914"><ele>69.35</ele><time>2015-01-28T11:35:57Z</time></trkpt><trkpt lat="51.9557645917" lon="-1.9608347677"><ele>69.35</ele><time>2015-01-28T11:36:14Z</time></trkpt><trkpt lat="51.9557730574" lon="-1.9608252123"><ele>69.83</ele><time>2015-01-28T11:36:16Z</time></trkpt><trkpt lat="51.9559509214" lon="-1.9607921876"><ele>68.87</ele><time>2015-01-28T11:36:33Z</time></trkpt><trkpt lat="51.9561969303" lon="-1.9607353583"><ele>69.83</ele><time>2015-01-28T11:36:43Z</time></trkpt><trkpt lat="51.9563183840" lon="-1.9607341010"><ele>68.39</ele><time>2015-01-28T11:36:56Z</time></trkpt><trkpt lat="51.9565793965" lon="-1.9607996475"><ele>69.35</ele><time>2015-01-28T11:37:15Z</time></trkpt><trkpt lat="51.9566722680" lon="-1.9607527088"><ele>69.35</ele><time>2015-01-28T11:37:20Z</time></trkpt><trkpt lat="51.9567807298" lon="-1.9607146550"><ele>71.27</ele><time>2015-01-28T11:37:27Z</time></trkpt><trkpt lat="51.9569373876" lon="-1.9607138168"><ele>69.35</ele><time>2015-01-28T11:37:45Z</time></trkpt><trkpt lat="51.9569279160" lon="-1.9607539661"><ele>70.31</ele><time>2015-01-28T11:38:08Z</time></trkpt><trkpt lat="51.9570753537" lon="-1.9606216159"><ele>69.35</ele><time>2015-01-28T11:38:19Z</time></trkpt><trkpt lat="51.9573103823" lon="-1.9605569914"><ele>69.83</ele><time>2015-01-28T11:38:37Z</time></trkpt><trkpt lat="51.9575858116" lon="-1.9604826439"><ele>68.87</ele><time>2015-01-28T11:38:54Z</time></trkpt><trkpt lat="51.9575967919" lon="-1.9605149142"><ele>70.31</ele><time>2015-01-28T11:39:08Z</time></trkpt><trkpt lat="51.9576186687" lon="-1.9607206900"><ele>70.79</ele><time>2015-01-28T11:39:25Z</time></trkpt><trkpt lat="51.9576112926" lon="-1.9607535470"><ele>70.79</ele><time>2015-01-28T11:39:44Z</time></trkpt><trkpt lat="51.9574744999" lon="-1.9610262942"><ele>70.79</ele><time>2015-01-28T11:40:03Z</time></trkpt><trkpt lat="51.9574655313" lon="-1.9610412978"><ele>70.31</ele><time>2015-01-28T11:40:04Z</time></trkpt><trkpt lat="51.9572931156" lon="-1.9613128714"><ele>70.31</ele><time>2015-01-28T11:40:24Z</time></trkpt><trkpt lat="51.9571079593" lon="-1.9614432100"><ele>71.27</ele><time>2015-01-28T11:40:43Z</time></trkpt><trkpt lat="51.9569352921" lon="-1.9615333155"><ele>71.27</ele><time>2015-01-28T11:41:02Z</time></trkpt><trkpt lat="51.9567641336" lon="-1.9616083335"><ele>71.76</ele><time>2015-01-28T11:41:21Z</time></trkpt><trkpt lat="51.9567499682" lon="-1.9616096746"><ele>72.24</ele><time>2015-01-28T11:41:23Z</time></trkpt><trkpt lat="51.9565715175" lon="-1.9616413582"><ele>72.24</ele><time>2015-01-28T11:41:40Z</time></trkpt><trkpt lat="51.9563582819" lon="-1.9616998639"><ele>72.72</ele><time>2015-01-28T11:42:00Z</time></trkpt><trkpt lat="51.9561639894" lon="-1.9618131034"><ele>72.24</ele><time>2015-01-28T11:42:18Z</time></trkpt><trkpt lat="51.9560682680" lon="-1.9618659932"><ele>72.72</ele><time>2015-01-28T11:42:31Z</time></trkpt><trkpt lat="51.9560043141" lon="-1.9619282708"><ele>72.72</ele><time>2015-01-28T11:42:51Z</time></trkpt><trkpt lat="51.9558678567" lon="-1.9619858544"><ele>74.16</ele><time>2015-01-28T11:43:01Z</time></trkpt><trkpt lat="51.9556607399" lon="-1.9621328730"><ele>74.16</ele><time>2015-01-28T11:43:19Z</time></trkpt><trkpt lat="51.9555394538" lon="-1.9623253215"><ele>74.16</ele><time>2015-01-28T11:43:36Z</time></trkpt><trkpt lat="51.9555094466" lon="-1.9623469468"><ele>74.64</ele><time>2015-01-28T11:43:39Z</time></trkpt><trkpt lat="51.9553487655" lon="-1.9624330290"><ele>75.12</ele><time>2015-01-28T11:43:56Z</time></trkpt><trkpt lat="51.9552170858" lon="-1.9624637067"><ele>75.60</ele><time>2015-01-28T11:44:07Z</time></trkpt><trkpt lat="51.9550449215" lon="-1.9625968952"><ele>77.04</ele><time>2015-01-28T11:44:24Z</time></trkpt><trkpt lat="51.9548426662" lon="-1.9627002440"><ele>77.52</ele><time>2015-01-28T11:44:43Z</time></trkpt><trkpt lat="51.9546586834" lon="-1.9628328457"><ele>78.97</ele><time>2015-01-28T11:45:01Z</time></trkpt><trkpt lat="51.9544800650" lon="-1.9629209395"><ele>79.45</ele><time>2015-01-28T11:45:19Z</time></trkpt><trkpt lat="51.9543294422" lon="-1.9631355163"><ele>79.45</ele><time>2015-01-28T11:45:37Z</time></trkpt><trkpt lat="51.9542035460" lon="-1.9632041641"><ele>80.89</ele><time>2015-01-28T11:45:57Z</time></trkpt><trkpt lat="51.9541079085" lon="-1.9632771704"><ele>79.45</ele><time>2015-01-28T11:46:15Z</time></trkpt><trkpt lat="51.9540830981" lon="-1.9633270428"><ele>80.41</ele><time>2015-01-28T11:46:37Z</time></trkpt><trkpt lat="51.9539895561" lon="-1.9634023122"><ele>79.45</ele><time>2015-01-28T11:46:56Z</time></trkpt><trkpt lat="51.9538208283" lon="-1.9635707047"><ele>79.45</ele><time>2015-01-28T11:47:16Z</time></trkpt><trkpt lat="51.9537196588" lon="-1.9637477305"><ele>82.33</ele><time>2015-01-28T11:47:32Z</time></trkpt><trkpt lat="51.9535540324" lon="-1.9639458787"><ele>82.81</ele><time>2015-01-28T11:47:54Z</time></trkpt><trkpt lat="51.9534458220" lon="-1.9640959986"><ele>82.81</ele><time>2015-01-28T11:48:13Z</time></trkpt><trkpt lat="51.9534475822" lon="-1.9640963338"><ele>81.85</ele><time>2015-01-28T11:48:25Z</time></trkpt><trkpt lat="51.9533247035" lon="-1.9643281773"><ele>81.85</ele><time>2015-01-28T11:48:43Z</time></trkpt><trkpt lat="51.9532664493" lon="-1.9644852541"><ele>80.89</ele><time>2015-01-28T11:49:01Z</time></trkpt></trkseg><trkseg><trkpt lat="51.9529368728" lon="-1.9653377775"><ele>85.21</ele><time>2015-01-28T11:52:30Z</time></trkpt><trkpt lat="51.9528365415" lon="-1.9655968621"><ele>84.73</ele><time>2015-01-28T11:52:46Z</time></trkpt><trkpt lat="51.9528004155" lon="-1.9658251014"><ele>85.21</ele><time>2015-01-28T11:53:03Z</time></trkpt><trkpt lat="51.9527821429" lon="-1.9659559429"><ele>85.69</ele><time>2015-01-28T11:53:10Z</time></trkpt><trkpt lat="51.9527145848" lon="-1.9662462920"><ele>84.73</ele><time>2015-01-28T11:53:28Z</time></trkpt><trkpt lat="51.9524663128" lon="-1.9668973982"><ele>83.77</ele><time>2015-01-28T11:53:51Z</time></trkpt><trkpt lat="51.9523809850" lon="-1.9671817124"><ele>84.73</ele><time>2015-01-28T11:54:06Z</time></trkpt><trkpt lat="51.9523511454" lon="-1.9673812017"><ele>85.69</ele><time>2015-01-28T11:54:22Z</time></trkpt><trkpt lat="51.9524219725" lon="-1.9676845428"><ele>87.62</ele><time>2015-01-28T11:54:38Z</time></trkpt><trkpt lat="51.9524176139" lon="-1.9680005405"><ele>87.62</ele><time>2015-01-28T11:54:50Z</time></trkpt><trkpt lat="51.9523966592" lon="-1.9681474753"><ele>87.62</ele><time>2015-01-28T11:54:55Z</time></trkpt><trkpt lat="51.9524060469" lon="-1.9682264328"><ele>89.54</ele><time>2015-01-28T11:54:59Z</time></trkpt><trkpt lat="51.9524093159" lon="-1.9685572665"><ele>88.10</ele><time>2015-01-28T11:55:13Z</time></trkpt><trkpt lat="51.9524215534" lon="-1.9687601924"><ele>90.02</ele><time>2015-01-28T11:55:28Z</time></trkpt><trkpt lat="51.9524200447" lon="-1.9687931333"><ele>90.50</ele><time>2015-01-28T11:55:30Z</time></trkpt><trkpt lat="51.9523686636" lon="-1.9690332748"><ele>90.50</ele><time>2015-01-28T11:55:41Z</time></trkpt><trkpt lat="51.9522942323" lon="-1.9693590794"><ele>90.02</ele><time>2015-01-28T11:55:57Z</time></trkpt><trkpt lat="51.9522472937" lon="-1.9695459120"><ele>91.46</ele><time>2015-01-28T11:56:11Z</time></trkpt><trkpt lat="51.9521964993" lon="-1.9698821940"><ele>91.46</ele><time>2015-01-28T11:56:28Z</time></trkpt><trkpt lat="51.9521498960" lon="-1.9700068329"><ele>92.90</ele><time>2015-01-28T11:56:33Z</time></trkpt><trkpt lat="51.9521175418" lon="-1.9701444637"><ele>91.94</ele><time>2015-01-28T11:56:37Z</time></trkpt><trkpt lat="51.9521224871" lon="-1.9701860379"><ele>91.94</ele><time>2015-01-28T11:56:39Z</time></trkpt><trkpt lat="51.9521119259" lon="-1.9704815838"><ele>93.39</ele><time>2015-01-28T11:56:53Z</time></trkpt><trkpt lat="51.9520337228" lon="-1.9708021916"><ele>93.87</ele><time>2015-01-28T11:57:09Z</time></trkpt><trkpt lat="51.9519696012" lon="-1.9710451830"><ele>94.35</ele><time>2015-01-28T11:57:26Z</time></trkpt><trkpt lat="51.9518836867" lon="-1.9712207839"><ele>94.35</ele><time>2015-01-28T11:57:36Z</time></trkpt><trkpt lat="51.9517425355" lon="-1.9715255499"><ele>94.83</ele><time>2015-01-28T11:57:51Z</time></trkpt><trkpt lat="51.9516570400" lon="-1.9719291385"><ele>95.31</ele><time>2015-01-28T11:58:08Z</time></trkpt><trkpt lat="51.9516705349" lon="-1.9719818607"><ele>94.83</ele><time>2015-01-28T11:58:10Z</time></trkpt><trkpt lat="51.9518104289" lon="-1.9722026400"><ele>95.79</ele><time>2015-01-28T11:58:23Z</time></trkpt><trkpt lat="51.9519665837" lon="-1.9724501576"><ele>98.19</ele><time>2015-01-28T11:58:38Z</time></trkpt><trkpt lat="51.9520547614" lon="-1.9723173883"><ele>97.71</ele><time>2015-01-28T11:58:51Z</time></trkpt><trkpt lat="51.9520300347" lon="-1.9721996225"><ele>97.71</ele><time>2015-01-28T11:59:05Z</time></trkpt><trkpt lat="51.9520309567" lon="-1.9721803442"><ele>97.23</ele><time>2015-01-28T11:59:23Z</time></trkpt><trkpt lat="51.9520247541" lon="-1.9721636642"><ele>98.67</ele><time>2015-01-28T11:59:44Z</time></trkpt><trkpt lat="51.9520265982" lon="-1.9721618202"><ele>96.27</ele><time>2015-01-28T11:59:57Z</time></trkpt></trkseg></trk></gpx>